Time;durP1;ratioP1;P1;durP2;ratioP2;P2;SDS_P1;SDS_P2;PMS_P1;PMS_P2;Temp;Humidity;BMP_temperature;BMP_pressure;BME280_temperature;BME280_humidity;BME280_pressure;Samples;Min_cycle;Max_cycle;Signal;HPM_P1;HPM_P2
2023/12/28 00:02:01;;;;;;;6.40;2.03;;;;;;;5.13;76.47;98277.53;5008681;28;20021;-83
2023/12/28 00:04:28;;;;;;;3.20;2.42;;;;;;;5.15;77.34;98285.25;5021551;28;20041;-82
2023/12/28 00:06:53;;;;;;;3.88;2.17;;;;;;;5.18;76.89;98306.78;5004095;28;20535;-83
2023/12/28 00:09:18;;;;;;;4.20;2.80;;;;;;;5.17;76.55;98309.66;5000751;28;20030;-83
2023/12/28 00:11:44;;;;;;;2.50;2.28;;;;;;;5.21;75.47;98310.81;4989903;28;20045;-83
2023/12/28 00:14:09;;;;;;;4.30;2.40;;;;;;;5.24;75.51;98303.22;4990639;28;20031;-83
2023/12/28 00:16:37;;;;;;;3.97;2.50;;;;;;;5.23;76.15;98301.63;5007266;28;20037;-83
2023/12/28 00:19:03;;;;;;;3.67;2.35;;;;;;;5.22;76.32;98293.91;4986896;28;20080;-82
2023/12/28 00:21:29;;;;;;;6.60;3.35;;;;;;;5.19;75.10;98300.47;4991715;28;20033;-83
2023/12/28 00:23:55;;;;;;;2.22;2.00;;;;;;;5.33;75.84;98301.84;5008056;28;20021;-83
2023/12/28 00:26:21;;;;;;;11.85;3.03;;;;;;;5.31;73.95;98301.28;5011035;28;20477;-83
2023/12/28 00:28:47;;;;;;;6.13;3.05;;;;;;;5.30;74.67;98296.22;5011622;28;20041;-83
2023/12/28 00:31:12;;;;;;;3.80;2.53;;;;;;;5.36;74.46;98302.41;5008531;28;20084;-83
2023/12/28 00:33:38;;;;;;;3.78;2.90;;;;;;;5.36;73.64;98311.16;5007578;28;20041;-82
2023/12/28 00:36:03;;;;;;;5.13;2.75;;;;;;;5.34;74.37;98318.53;5009260;28;20062;-82
2023/12/28 00:38:29;;;;;;;3.63;2.80;;;;;;;5.43;74.58;98303.94;5011467;28;20505;-83
2023/12/28 00:40:54;;;;;;;4.05;2.90;;;;;;;5.38;74.36;98295.06;5005303;28;20042;-83
2023/12/28 00:43:19;;;;;;;5.20;2.75;;;;;;;5.52;74.90;98317.63;4993488;28;20489;-83
2023/12/28 00:45:45;;;;;;;5.22;3.30;;;;;;;5.53;74.73;98309.47;5004433;28;20499;-83
2023/12/28 00:48:10;;;;;;;3.80;2.58;;;;;;;5.50;74.51;98288.75;5003435;28;20123;-83
2023/12/28 00:50:35;;;;;;;4.57;3.00;;;;;;;5.51;73.98;98287.72;5002130;28;20030;-82
2023/12/28 00:53:01;;;;;;;3.08;2.65;;;;;;;5.54;73.42;98297.03;4983559;28;20075;-82
2023/12/28 00:55:27;;;;;;;5.50;2.83;;;;;;;5.56;73.63;98290.47;4987910;28;20043;-83
2023/12/28 00:57:53;;;;;;;5.90;3.15;;;;;;;5.60;73.31;98301.41;5000453;28;20381;-82
2023/12/28 01:00:18;;;;;;;4.82;3.30;;;;;;;5.60;73.55;98319.94;4984196;28;20045;-83
2023/12/28 01:02:46;;;;;;;4.32;3.00;;;;;;;5.66;75.39;98335.72;4982882;28;20064;-83
2023/12/28 01:05:12;;;;;;;4.88;3.67;;;;;;;5.68;74.73;98338.94;4998499;28;20120;-84
2023/12/28 01:07:38;;;;;;;4.10;3.33;;;;;;;5.68;75.12;98338.94;5004048;28;20068;-83
2023/12/28 01:10:03;;;;;;;4.40;2.90;;;;;;;5.72;75.36;98353.31;5005768;28;20034;-83
2023/12/28 01:12:29;;;;;;;3.00;2.65;;;;;;;5.75;75.44;98360.81;5008791;28;20083;-82
2023/12/28 01:14:54;;;;;;;6.55;3.28;;;;;;;5.67;75.59;98347.94;5001903;28;20390;-83
2023/12/28 01:17:19;;;;;;;5.13;3.00;;;;;;;5.72;75.93;98350.66;4997492;28;20030;-83
2023/12/28 01:19:45;;;;;;;13.82;3.85;;;;;;;5.78;75.88;98348.97;4996515;28;20036;-82
2023/12/28 01:22:10;;;;;;;6.10;3.55;;;;;;;5.70;76.06;98331.56;4983265;28;20481;-83
2023/12/28 01:24:35;;;;;;;5.65;2.85;;;;;;;5.83;76.98;98354.38;4979324;28;20520;-82
2023/12/28 01:27:01;;;;;;;7.32;3.92;;;;;;;5.71;77.29;98354.38;5001938;28;20420;-83
2023/12/28 01:29:26;;;;;;;8.02;3.35;;;;;;;5.61;77.32;98354.13;5001691;28;20058;-82
2023/12/28 01:31:51;;;;;;;4.93;3.63;;;;;;;5.61;77.91;98359.44;5001284;28;20069;-83
2023/12/28 01:34:17;;;;;;;7.45;3.70;;;;;;;5.55;78.25;98356.91;5002159;28;20251;-83
2023/12/28 01:36:44;;;;;;;6.68;2.78;;;;;;;5.64;78.67;98388.09;4998894;28;20089;-83
2023/12/28 01:39:10;;;;;;;7.88;5.13;;;;;;;5.55;78.53;98386.00;5000719;28;20394;-83
2023/12/28 01:41:36;;;;;;;6.80;4.25;;;;;;;5.62;77.84;98391.97;5000812;28;20393;-82
2023/12/28 01:44:02;;;;;;;5.93;3.55;;;;;;;5.69;77.25;98377.63;5005050;28;20036;-82
2023/12/28 01:46:27;;;;;;;5.32;3.28;;;;;;;5.65;77.12;98371.19;5010593;28;20125;-82
2023/12/28 01:48:53;;;;;;;7.95;4.00;;;;;;;5.65;77.15;98362.41;4975365;28;20610;-82
2023/12/28 01:51:20;;;;;;;5.97;3.78;;;;;;;5.67;77.22;98363.81;5006173;28;20386;-82
2023/12/28 01:53:48;;;;;;;6.82;4.50;;;;;;;5.51;77.98;98355.72;5007455;28;20562;-83
2023/12/28 01:56:14;;;;;;;8.93;4.18;;;;;;;5.58;78.54;98372.31;5010886;28;20065;-83
2023/12/28 01:58:43;;;;;;;10.32;4.57;;;;;;;5.55;78.68;98386.78;5006919;28;20026;-82
2023/12/28 02:01:10;;;;;;;5.40;3.42;;;;;;;5.53;79.68;98399.44;5012200;28;20025;-83
2023/12/28 02:03:35;;;;;;;5.65;3.63;;;;;;;5.49;80.17;98387.72;5003444;28;20057;-83
2023/12/28 02:06:02;;;;;;;5.47;4.00;;;;;;;5.54;80.61;98390.50;4984786;28;20064;-82
2023/12/28 02:08:27;;;;;;;5.32;3.55;;;;;;;5.44;81.11;98373.56;5000931;28;20505;-83
2023/12/28 02:10:54;;;;;;;7.97;3.85;;;;;;;5.38;81.42;98383.19;5002634;28;20042;-83
2023/12/28 02:13:20;;;;;;;6.38;3.50;;;;;;;5.39;81.42;98374.25;5001743;28;20040;-84
2023/12/28 02:15:49;;;;;;;12.18;4.25;;;;;;;5.27;81.94;98374.19;5003841;28;20104;-82
2023/12/28 02:18:21;;;;;;;9.57;4.32;;;;;;;5.26;82.80;98392.94;5004439;28;20033;-83
2023/12/28 02:20:49;;;;;;;4.45;3.55;;;;;;;5.25;83.28;98386.03;5009296;28;20060;-83
2023/12/28 02:23:15;;;;;;;6.00;4.07;;;;;;;5.24;84.52;98390.50;5006937;28;20443;-83
2023/12/28 02:25:41;;;;;;;8.30;4.10;;;;;;;5.27;84.39;98395.38;5010509;28;20025;-83
2023/12/28 02:28:06;;;;;;;6.55;3.55;;;;;;;5.28;84.25;98390.88;4994937;28;20164;-83
2023/12/28 02:30:32;;;;;;;9.13;3.90;;;;;;;5.18;85.35;98391.41;5011461;28;20042;-83
2023/12/28 02:33:04;;;;;;;9.77;3.15;;;;;;;5.25;85.28;98401.91;4978868;28;20061;-83
2023/12/28 02:35:35;;;;;;;5.68;4.00;;;;;;;5.25;85.57;98397.44;5008843;28;20442;-83
2023/12/28 02:38:09;;;;;;;5.88;3.83;;;;;;;5.27;85.15;98398.00;5003926;28;20030;-83
2023/12/28 02:40:40;;;;;;;6.00;3.85;;;;;;;5.35;85.17;98388.13;5008173;28;20037;-83
2023/12/28 02:43:07;;;;;;;7.05;4.32;;;;;;;5.37;85.26;98399.31;5013199;28;20030;-83
2023/12/28 02:45:32;;;;;;;7.30;4.60;;;;;;;5.28;85.47;98393.53;5002791;28;20033;-83
2023/12/28 02:47:57;;;;;;;6.68;3.88;;;;;;;5.21;85.97;98406.84;5008473;28;20030;-84
2023/12/28 02:50:23;;;;;;;5.72;3.88;;;;;;;5.32;86.44;98402.63;5007420;28;20525;-83
2023/12/28 02:52:48;;;;;;;6.15;4.10;;;;;;;5.36;86.18;98418.84;4992529;28;20433;-83
2023/12/28 02:55:13;;;;;;;9.73;4.80;;;;;;;5.21;85.58;98383.03;4992675;28;20038;-83
2023/12/28 02:57:40;;;;;;;6.32;4.05;;;;;;;5.21;85.91;98390.97;4997317;28;20517;-83
2023/12/28 03:00:08;;;;;;;4.32;3.63;;;;;;;5.25;85.68;98388.69;4992400;28;20496;-83
2023/12/28 03:02:34;;;;;;;6.10;3.30;;;;;;;5.28;86.12;98418.16;5010838;28;20214;-83
2023/12/28 03:04:59;;;;;;;4.40;3.63;;;;;;;5.18;86.29;98385.31;5011970;28;20108;-83
2023/12/28 03:07:24;;;;;;;6.38;3.40;;;;;;;5.17;85.94;98379.25;5009713;28;20040;-83
2023/12/28 03:09:50;;;;;;;6.45;3.67;;;;;;;5.20;85.24;98377.94;4986294;28;20484;-83
2023/12/28 03:12:16;;;;;;;4.78;3.85;;;;;;;5.29;85.57;98373.97;5007703;28;20030;-83
2023/12/28 03:14:41;;;;;;;9.00;3.72;;;;;;;5.12;85.59;98365.06;4994000;28;20061;-83
2023/12/28 03:17:07;;;;;;;3.58;3.15;;;;;;;5.25;86.29;98364.88;5010847;28;20493;-83
2023/12/28 03:19:32;;;;;;;5.75;3.95;;;;;;;5.25;85.86;98370.16;4993248;28;20033;-83
2023/12/28 03:21:57;;;;;;;6.55;3.70;;;;;;;5.28;86.50;98388.25;4995358;28;20033;-83
2023/12/28 03:24:23;;;;;;;6.10;4.28;;;;;;;5.31;85.48;98383.28;5009032;28;20037;-83
2023/12/28 03:26:48;;;;;;;6.55;3.85;;;;;;;5.23;85.78;98409.25;5000455;28;20906;-83
2023/12/28 03:29:13;;;;;;;4.45;4.00;;;;;;;5.26;86.34;98406.19;4976778;28;20200;-83
2023/12/28 03:31:40;;;;;;;8.20;3.58;;;;;;;5.24;86.25;98408.25;5008540;28;20057;-83
2023/12/28 03:34:05;;;;;;;7.00;4.07;;;;;;;5.42;85.80;98424.03;4989516;28;20485;-83
2023/12/28 03:36:31;;;;;;;4.78;3.30;;;;;;;5.33;86.30;98428.03;5008444;28;20046;-83
2023/12/28 03:38:56;;;;;;;5.60;3.42;;;;;;;5.34;86.14;98413.78;5005883;28;20084;-82
2023/12/28 03:41:21;;;;;;;3.80;3.22;;;;;;;5.41;85.76;98422.44;5006150;28;20048;-83
2023/12/28 03:43:47;;;;;;;4.07;3.35;;;;;;;5.44;85.84;98419.34;5006139;28;20492;-84
2023/12/28 03:46:13;;;;;;;4.82;3.20;;;;;;;5.44;86.47;98421.19;5000571;28;20060;-82
2023/12/28 03:48:38;;;;;;;5.15;3.58;;;;;;;5.40;85.93;98402.28;5004745;28;20041;-83
2023/12/28 03:51:04;;;;;;;4.47;3.65;;;;;;;5.40;85.66;98396.19;5002367;28;20037;-83
2023/12/28 03:53:33;;;;;;;5.40;3.63;;;;;;;5.42;85.56;98416.09;5010216;28;20125;-83
2023/12/28 03:55:59;;;;;;;7.38;3.95;;;;;;;5.44;85.93;98403.44;5008798;28;20186;-83
2023/12/28 03:58:24;;;;;;;4.40;3.38;;;;;;;5.41;85.65;98403.09;5003867;28;20037;-83
2023/12/28 04:00:49;;;;;;;3.65;2.95;;;;;;;5.30;86.28;98404.69;5009350;28;20029;-83
2023/12/28 04:03:15;;;;;;;3.92;3.10;;;;;;;5.36;85.97;98406.44;5014425;28;20049;-83
2023/12/28 04:05:41;;;;;;;4.40;3.38;;;;;;;5.30;85.92;98389.63;5010342;28;20576;-83
2023/12/28 04:08:07;;;;;;;6.32;3.45;;;;;;;5.40;85.89;98412.88;5010526;28;20080;-83
2023/12/28 04:10:33;;;;;;;5.70;3.45;;;;;;;5.36;85.85;98402.97;4989456;28;20040;-83
2023/12/28 04:12:59;;;;;;;5.55;4.55;;;;;;;5.43;85.79;98395.75;5006392;28;20037;-83
2023/12/28 04:15:26;;;;;;;9.80;3.72;;;;;;;5.41;85.78;98429.56;5009061;28;20057;-83
2023/12/28 04:17:51;;;;;;;5.32;3.83;;;;;;;5.34;85.81;98405.84;4992654;28;20132;-83
2023/12/28 04:20:17;;;;;;;7.07;3.55;;;;;;;5.47;86.19;98420.72;5006513;28;20120;-83
2023/12/28 04:22:45;;;;;;;5.90;3.08;;;;;;;5.41;85.94;98426.94;5013542;28;20060;-83
2023/12/28 04:25:11;;;;;;;6.22;3.60;;;;;;;5.39;85.97;98424.50;5008542;28;20072;-83
2023/12/28 04:27:37;;;;;;;5.32;3.10;;;;;;;5.44;85.73;98435.22;5006701;28;20030;-83
2023/12/28 04:30:05;;;;;;;4.97;3.67;;;;;;;5.36;86.87;98426.78;5003625;28;20028;-83
2023/12/28 04:32:31;;;;;;;6.15;4.15;;;;;;;5.36;86.34;98419.66;5017759;28;20033;-83
2023/12/28 04:34:56;;;;;;;7.13;4.03;;;;;;;5.43;86.38;98436.25;5008049;28;20040;-83
2023/12/28 04:37:21;;;;;;;6.07;3.92;;;;;;;5.32;86.63;98421.97;4998879;28;20087;-83
2023/12/28 04:39:47;;;;;;;6.68;3.72;;;;;;;5.41;86.83;98426.94;4977527;28;20022;-83
2023/12/28 04:42:12;;;;;;;7.13;3.63;;;;;;;5.40;86.61;98420.81;5006745;28;20048;-83
2023/12/28 04:44:38;;;;;;;5.70;3.55;;;;;;;5.41;87.12;98422.44;4993512;28;20041;-83
2023/12/28 04:47:04;;;;;;;4.22;3.83;;;;;;;5.37;87.39;98441.63;5003789;28;20040;-83
2023/12/28 04:49:30;;;;;;;5.60;4.13;;;;;;;5.41;87.28;98426.94;4991308;28;20052;-83
2023/12/28 04:51:55;;;;;;;4.68;3.35;;;;;;;5.36;87.40;98430.25;4992000;28;20199;-82
2023/12/28 04:54:21;;;;;;;4.68;3.30;;;;;;;5.39;87.50;98421.88;5003143;28;20029;-83
2023/12/28 04:56:46;;;;;;;6.97;3.40;;;;;;;5.44;87.37;98429.91;5005910;28;20045;-83
2023/12/28 04:59:12;;;;;;;4.72;3.75;;;;;;;5.35;88.31;98425.19;5007798;28;20034;-83
2023/12/28 05:01:44;;;;;;;6.25;3.85;;;;;;;5.36;87.56;98429.44;5001824;28;20120;-83
2023/12/28 05:04:10;;;;;;;4.70;3.28;;;;;;;5.39;87.61;98418.41;5010724;28;20045;-83
2023/12/28 05:06:35;;;;;;;7.07;4.32;;;;;;;5.45;87.56;98434.19;5004192;28;20460;-82
2023/12/28 05:09:01;;;;;;;7.55;3.45;;;;;;;5.46;87.14;98438.44;5008630;28;20032;-83
2023/12/28 05:11:26;;;;;;;4.40;4.00;;;;;;;5.41;87.39;98440.97;5008463;28;21468;-83
2023/12/28 05:13:52;;;;;;;5.70;3.88;;;;;;;5.42;87.81;98439.91;4987012;28;20041;-83
2023/12/28 05:16:17;;;;;;;5.53;4.25;;;;;;;5.39;87.71;98447.50;4986785;28;20026;-83
2023/12/28 05:18:42;;;;;;;4.38;3.97;;;;;;;5.45;87.44;98443.97;4976703;28;20060;-83
2023/12/28 05:21:08;;;;;;;3.85;3.38;;;;;;;5.40;88.36;98459.69;4999320;28;20026;-83
2023/12/28 05:23:33;;;;;;;4.25;3.53;;;;;;;5.50;87.93;98438.81;4996286;28;20521;-83
2023/12/28 05:25:58;;;;;;;6.13;3.35;;;;;;;5.47;88.03;98440.06;5005279;28;20462;-83
2023/12/28 05:28:24;;;;;;;5.93;3.65;;;;;;;5.48;87.82;98441.69;5005058;28;20038;-83
2023/12/28 05:30:49;;;;;;;6.47;4.13;;;;;;;5.41;88.74;98448.91;5007769;28;20065;-83
2023/12/28 05:33:14;;;;;;;5.20;3.88;;;;;;;5.36;89.10;98454.06;5008755;28;20087;-83
2023/12/28 05:35:40;;;;;;;6.35;3.60;;;;;;;5.35;88.49;98441.88;5005295;28;20489;-83
2023/12/28 05:38:05;;;;;;;5.78;3.50;;;;;;;5.47;88.64;98450.66;4988810;28;20068;-83
2023/12/28 05:40:31;;;;;;;6.38;3.65;;;;;;;5.39;88.32;98461.56;4966485;28;20022;-83
2023/12/28 05:42:56;;;;;;;3.75;3.10;;;;;;;5.43;89.21;98467.19;5008544;28;20164;-83
2023/12/28 05:45:21;;;;;;;5.80;3.60;;;;;;;5.38;89.04;98462.56;5001786;28;20481;-83
2023/12/28 05:47:47;;;;;;;5.05;3.50;;;;;;;5.22;88.81;98452.63;5012815;28;20436;-83
2023/12/28 05:50:12;;;;;;;5.15;3.90;;;;;;;5.34;89.59;98461.41;5003345;28;20029;-83
2023/12/28 05:52:38;;;;;;;5.35;3.90;;;;;;;5.40;88.28;98455.22;5008526;28;20141;-83
2023/12/28 05:55:04;;;;;;;5.78;3.95;;;;;;;5.36;89.62;98459.34;4997513;28;20045;-83
2023/12/28 05:57:30;;;;;;;4.70;3.47;;;;;;;5.41;88.91;98454.19;5002948;28;20137;-84
2023/12/28 05:59:56;;;;;;;7.75;4.40;;;;;;;5.44;88.70;98452.94;5009348;28;20108;-84
2023/12/28 06:02:22;;;;;;;6.97;3.67;;;;;;;5.27;89.23;98452.75;5006205;28;20129;-83
2023/12/28 06:04:47;;;;;;;6.40;3.88;;;;;;;5.33;88.62;98449.19;5001202;28;20083;-83
2023/12/28 06:07:12;;;;;;;5.78;4.22;;;;;;;5.37;88.78;98454.88;4998639;28;20117;-83
2023/12/28 06:09:38;;;;;;;10.02;4.13;;;;;;;5.36;89.98;98459.34;5006924;28;20044;-83
2023/12/28 06:12:05;;;;;;;9.57;4.05;;;;;;;5.25;89.35;98444.22;5008019;28;20026;-83
2023/12/28 06:14:30;;;;;;;7.45;3.65;;;;;;;5.21;89.56;98448.38;5007808;28;20026;-83
2023/12/28 06:16:55;;;;;;;5.63;3.25;;;;;;;5.38;89.23;98451.19;5007607;28;20033;-83
2023/12/28 06:19:22;;;;;;;6.40;3.67;;;;;;;5.25;89.76;98442.41;5012318;28;20030;-83
2023/12/28 06:21:48;;;;;;;7.43;3.72;;;;;;;5.21;89.80;98454.47;5007085;28;20036;-83
2023/12/28 06:24:13;;;;;;;4.50;2.88;;;;;;;5.26;89.64;98446.66;5005669;28;20033;-83
2023/12/28 06:26:44;;;;;;;5.97;4.22;;;;;;;5.36;89.28;98456.72;5007130;28;20033;-83
2023/12/28 06:29:10;;;;;;;8.65;4.22;;;;;;;5.46;89.39;98464.91;5006485;28;20034;-82
2023/12/28 06:31:36;;;;;;;6.05;3.67;;;;;;;5.37;89.38;98450.41;4982294;28;20508;-83
2023/12/28 06:34:03;;;;;;;9.23;4.13;;;;;;;5.41;88.96;98442.81;5002543;28;20038;-83
2023/12/28 06:36:29;;;;;;;4.43;3.60;;;;;;;5.39;89.63;98445.69;5002063;28;20046;-83
2023/12/28 06:38:54;;;;;;;6.43;4.15;;;;;;;5.37;89.84;98452.22;5006428;28;20029;-83
2023/12/28 06:41:19;;;;;;;3.95;3.55;;;;;;;5.37;89.75;98444.28;5011487;28;20041;-83
2023/12/28 06:43:45;;;;;;;4.47;3.97;;;;;;;5.37;89.50;98457.53;4992101;28;20056;-82
2023/12/28 06:46:10;;;;;;;5.70;3.85;;;;;;;5.38;90.10;98470.50;4987207;28;20038;-82
2023/12/28 06:48:36;;;;;;;7.25;4.38;;;;;;;5.35;89.72;98462.22;5003877;28;20121;-83
2023/12/28 06:51:02;;;;;;;6.95;4.40;;;;;;;5.35;89.29;98462.22;4992358;28;20049;-83
2023/12/28 06:53:27;;;;;;;8.45;4.78;;;;;;;5.27;90.21;98465.97;5000320;28;20030;-83
2023/12/28 06:55:52;;;;;;;7.00;4.25;;;;;;;5.42;90.07;98479.63;5008299;28;20040;-83
2023/12/28 06:58:18;;;;;;;6.85;3.80;;;;;;;5.39;89.86;98472.16;5011841;28;21468;-83
2023/12/28 07:00:43;;;;;;;7.38;4.32;;;;;;;5.36;89.84;98474.41;5007907;28;20308;-83
2023/12/28 07:03:09;;;;;;;6.90;3.47;;;;;;;5.32;90.73;98484.66;5005753;28;20226;-83
2023/12/28 07:05:35;;;;;;;6.47;4.10;;;;;;;5.33;89.65;98479.13;5010882;28;20096;-83
2023/12/28 07:08:01;;;;;;;7.22;4.50;;;;;;;5.24;90.41;98487.63;5005251;28;20058;-83
2023/12/28 07:10:26;;;;;;;7.93;4.25;;;;;;;5.43;89.43;98494.47;5010808;28;20049;-83
2023/12/28 07:12:51;;;;;;;5.85;4.20;;;;;;;5.47;89.55;98479.75;5005045;28;20481;-83
2023/12/28 07:15:17;;;;;;;6.20;4.22;;;;;;;5.32;89.64;98495.22;4990579;28;20049;-84
2023/12/28 07:17:42;;;;;;;7.20;4.13;;;;;;;5.28;90.38;98508.13;5009259;28;20176;-83
2023/12/28 07:20:11;;;;;;;7.00;4.75;;;;;;;5.33;89.96;98510.06;4992474;28;20029;-83
2023/12/28 07:22:38;;;;;;;7.20;4.85;;;;;;;5.37;89.68;98499.84;5003431;28;20060;-83
2023/12/28 07:25:07;;;;;;;7.55;4.10;;;;;;;5.30;90.70;98514.00;5014657;28;20060;-83
2023/12/28 07:27:34;;;;;;;6.50;4.28;;;;;;;5.29;90.00;98487.72;5009973;28;20030;-83
2023/12/28 07:29:59;;;;;;;7.20;4.03;;;;;;;5.44;90.30;98511.97;5010020;28;20076;-83
2023/12/28 07:32:28;;;;;;;5.25;3.80;;;;;;;5.31;90.13;98506.84;5011644;28;20036;-83
2023/12/28 07:34:53;;;;;;;5.88;4.53;;;;;;;5.40;90.54;98525.84;5009469;28;20080;-84
2023/12/28 07:37:19;;;;;;;5.65;4.18;;;;;;;5.48;90.19;98528.22;5015400;28;20034;-83
2023/12/28 07:39:44;;;;;;;7.30;4.38;;;;;;;5.47;90.43;98538.00;4987130;28;20041;-83
2023/12/28 07:42:10;;;;;;;7.22;5.40;;;;;;;5.38;90.43;98519.97;5007034;28;20044;-83
2023/12/28 07:44:35;;;;;;;8.98;4.13;;;;;;;5.39;90.27;98540.13;5009566;28;20044;-82
2023/12/28 07:47:00;;;;;;;7.82;4.82;;;;;;;5.39;91.20;98534.84;4998906;28;20089;-83
2023/12/28 07:49:26;;;;;;;6.22;4.60;;;;;;;5.33;90.95;98533.88;5014409;28;20037;-83
2023/12/28 07:51:51;;;;;;;6.68;4.50;;;;;;;5.44;91.07;98543.72;5008726;28;20482;-82
2023/12/28 07:54:17;;;;;;;7.55;4.50;;;;;;;5.36;91.30;98530.78;5010768;28;20393;-82
2023/12/28 07:56:42;;;;;;;10.15;4.53;;;;;;;5.39;91.35;98535.66;4973693;28;20066;-83
2023/12/28 07:59:09;;;;;;;5.13;4.57;;;;;;;5.43;91.38;98528.88;5009140;28;20029;-82
2023/12/28 08:01:34;;;;;;;5.75;3.80;;;;;;;5.41;91.35;98528.31;5009205;28;20456;-82
2023/12/28 08:04:01;;;;;;;6.57;4.97;;;;;;;5.40;91.32;98536.44;5009987;28;20122;-83
2023/12/28 08:06:27;;;;;;;7.05;4.15;;;;;;;5.42;90.94;98545.78;5006477;28;20025;-83
2023/12/28 08:08:53;;;;;;;6.68;4.10;;;;;;;5.44;91.36;98564.09;5011498;28;20030;-83
2023/12/28 08:11:19;;;;;;;5.28;4.10;;;;;;;5.50;90.93;98571.16;5008489;28;20040;-83
2023/12/28 08:13:44;;;;;;;6.72;4.32;;;;;;;5.48;91.40;98558.16;5011391;28;20124;-82
2023/12/28 08:16:10;;;;;;;9.18;4.28;;;;;;;5.46;91.84;98569.97;5009956;28;20113;-83
2023/12/28 08:18:35;;;;;;;5.65;4.13;;;;;;;5.41;91.60;98553.94;5011358;28;20042;-82
2023/12/28 08:21:00;;;;;;;7.10;4.57;;;;;;;5.38;92.24;98552.56;5011419;28;20112;-82
2023/12/28 08:23:26;;;;;;;7.60;4.63;;;;;;;5.50;91.30;98560.56;5009150;28;20026;-82
2023/12/28 08:25:51;;;;;;;6.13;4.68;;;;;;;5.53;91.16;98562.75;4986992;28;20034;-83
2023/12/28 08:28:17;;;;;;;4.70;3.78;;;;;;;5.51;91.15;98565.63;5010942;28;20033;-82
2023/12/28 08:30:42;;;;;;;6.57;4.90;;;;;;;5.53;90.82;98565.38;4987092;28;20489;-82
2023/12/28 08:33:09;;;;;;;6.32;3.75;;;;;;;5.49;91.52;98562.38;5005130;28;20050;-82
2023/12/28 08:35:34;;;;;;;5.82;4.47;;;;;;;5.54;91.05;98559.06;4995081;28;20084;-83
2023/12/28 08:37:59;;;;;;;6.00;4.60;;;;;;;5.49;91.89;98567.69;5013282;28;20030;-82
2023/12/28 08:40:25;;;;;;;6.82;4.40;;;;;;;5.58;91.26;98574.28;4990473;28;20457;-82
2023/12/28 08:42:51;;;;;;;8.73;4.15;;;;;;;5.57;91.39;98574.53;5010508;28;20044;-82
2023/12/28 08:45:16;;;;;;;5.88;3.80;;;;;;;5.43;91.83;98541.31;5012012;28;20686;-82
2023/12/28 08:47:41;;;;;;;6.13;3.95;;;;;;;5.46;91.52;98548.81;5005900;28;20030;-82
2023/12/28 08:50:07;;;;;;;7.45;4.72;;;;;;;5.51;92.52;98555.03;4978367;28;20092;-82
2023/12/28 08:52:32;;;;;;;9.38;4.15;;;;;;;5.59;91.53;98556.56;5010581;28;20080;-82
2023/12/28 08:54:59;;;;;;;5.03;3.92;;;;;;;5.58;91.29;98555.75;4973735;28;20485;-82
2023/12/28 08:57:24;;;;;;;6.45;4.25;;;;;;;5.57;91.84;98550.69;5008252;28;20033;-82
2023/12/28 08:59:50;;;;;;;7.32;5.22;;;;;;;5.55;92.45;98558.06;5003943;28;20037;-82
2023/12/28 09:02:15;;;;;;;10.13;4.65;;;;;;;5.52;91.08;98556.66;5004490;28;20388;-83
2023/12/28 09:04:40;;;;;;;6.63;4.57;;;;;;;5.52;91.57;98561.13;5004528;28;20127;-83
2023/12/28 09:07:06;;;;;;;5.57;4.03;;;;;;;5.48;92.21;98559.97;4989929;28;20089;-82
2023/12/28 09:09:31;;;;;;;21.05;4.60;;;;;;;5.75;91.64;98562.06;4978709;28;20045;-83
2023/12/28 09:11:56;;;;;;;5.40;4.50;;;;;;;5.93;90.36;98572.63;4988689;28;20030;-81
2023/12/28 09:14:22;;;;;;;6.82;4.20;;;;;;;5.76;90.37;98558.38;5007018;28;20113;-82
2023/12/28 09:16:47;;;;;;;4.80;3.83;;;;;;;5.77;90.93;98572.41;5010219;28;20030;-82
2023/12/28 09:19:14;;;;;;;8.75;4.45;;;;;;;5.75;90.64;98569.19;5011323;28;20495;-81
2023/12/28 09:21:40;;;;;;;5.65;4.10;;;;;;;5.80;91.15;98591.31;5007416;28;20033;-82
2023/12/28 09:24:06;;;;;;;7.05;4.10;;;;;;;5.77;90.93;98585.66;5005258;28;20033;-82
2023/12/28 09:26:32;;;;;;;9.38;4.05;;;;;;;5.70;91.61;98585.72;5007347;28;20076;-81
2023/12/28 09:28:58;;;;;;;5.18;4.13;;;;;;;5.72;91.24;98588.97;5011286;28;20022;-81
2023/12/28 09:31:23;;;;;;;5.07;3.28;;;;;;;5.80;90.94;98615.16;4993139;28;20033;-81
2023/12/28 09:33:48;;;;;;;10.13;4.57;;;;;;;5.71;91.47;98607.72;5011822;28;20042;-81
2023/12/28 09:36:15;;;;;;;5.47;4.18;;;;;;;5.83;92.08;98609.38;5007383;28;20383;-82
2023/12/28 09:38:40;;;;;;;6.32;4.00;;;;;;;5.80;91.64;98612.50;5006607;28;20069;-81
2023/12/28 09:41:14;;;;;;;5.38;4.18;;;;;;;5.86;91.38;98610.81;5007676;28;20057;-80
2023/12/28 09:43:53;;;;;;;7.00;4.03;;;;;;;5.78;91.19;98592.56;5008035;28;20076;-81
2023/12/28 09:46:18;;;;;;;8.98;5.30;;;;;;;5.85;91.34;98590.69;5010398;28;20026;-81
2023/12/28 09:48:44;;;;;;;8.57;3.97;;;;;;;5.87;91.27;98596.56;5008908;28;20052;-81
2023/12/28 09:51:10;;;;;;;5.65;4.53;;;;;;;5.89;91.78;98613.03;4989681;28;20034;-81
2023/12/28 09:53:36;;;;;;;8.98;3.80;;;;;;;5.87;91.16;98596.56;5008246;28;20516;-82
2023/12/28 09:56:02;;;;;;;18.88;4.70;;;;;;;5.92;91.08;98594.84;5010454;28;20029;-82
2023/12/28 09:58:30;;;;;;;8.70;4.07;;;;;;;5.99;90.97;98608.81;5014706;28;20026;-81
2023/12/28 10:00:56;;;;;;;5.38;4.20;;;;;;;6.01;91.22;98620.00;5006365;28;20068;-81
2023/12/28 10:03:21;;;;;;;7.15;3.65;;;;;;;5.98;90.91;98603.75;5003245;28;20742;-82
2023/12/28 10:05:47;;;;;;;9.80;5.32;;;;;;;6.05;90.57;98618.50;5006228;28;20304;-82
2023/12/28 10:08:16;;;;;;;7.65;4.15;;;;;;;5.96;90.99;98617.19;5010192;28;20040;-81
2023/12/28 10:10:42;;;;;;;9.65;5.25;;;;;;;6.11;91.12;98614.16;5003736;28;20057;-81
2023/12/28 10:13:09;;;;;;;6.93;3.63;;;;;;;6.21;90.29;98608.28;5009178;28;20026;-81
2023/12/28 10:15:35;;;;;;;9.07;4.00;;;;;;;6.14;90.33;98607.59;5008845;28;20037;-82
2023/12/28 10:18:01;;;;;;;7.55;4.22;;;;;;;6.07;91.18;98591.81;5009027;28;20053;-81
2023/12/28 10:20:27;;;;;;;10.70;3.63;;;;;;;6.14;90.55;98595.16;5008050;28;20022;-81
2023/12/28 10:22:53;;;;;;;9.10;4.10;;;;;;;6.17;90.44;98596.53;5007969;28;20061;-81
2023/12/28 10:25:18;;;;;;;12.27;5.10;;;;;;;6.21;90.32;98576.50;5006883;28;20025;-82
2023/12/28 10:27:44;;;;;;;6.07;4.22;;;;;;;6.37;89.08;98578.50;5003060;28;20029;-82
2023/12/28 10:30:10;;;;;;;9.07;4.30;;;;;;;6.53;88.22;98580.50;4987450;28;20125;-82
2023/12/28 10:32:40;;;;;;;4.55;3.72;;;;;;;6.62;87.82;98587.06;4988444;28;20553;-81
2023/12/28 10:35:05;;;;;;;8.93;3.97;;;;;;;6.53;88.40;98591.09;5008872;28;20038;-81
2023/12/28 10:37:34;;;;;;;6.22;4.07;;;;;;;6.50;89.43;98602.16;5010623;28;20026;-81
2023/12/28 10:40:04;;;;;;;8.13;4.15;;;;;;;6.45;89.76;98589.56;4992301;28;20109;-81
2023/12/28 10:42:41;;;;;;;11.00;3.92;;;;;;;6.45;89.25;98586.13;5007287;28;20125;-81
2023/12/28 10:45:10;;;;;;;6.18;4.32;;;;;;;6.44;89.83;98593.28;5008132;28;20022;-81
2023/12/28 10:47:45;;;;;;;9.90;4.03;;;;;;;6.37;89.38;98579.31;4992663;28;20026;-81
2023/12/28 10:50:11;;;;;;;7.03;3.78;;;;;;;6.51;89.44;98586.00;5009312;28;20513;-81
2023/12/28 10:52:37;;;;;;;6.55;3.97;;;;;;;6.53;90.17;98589.22;5009279;28;20057;-81
2023/12/28 10:55:26;;;;;;;5.97;4.00;;;;;;;6.53;89.69;98572.53;5010223;28;20037;-80
2023/12/28 10:57:57;;;;;;;5.50;3.72;;;;;;;6.54;89.17;98569.66;5012630;28;20493;-81
2023/12/28 11:00:26;;;;;;;4.45;3.63;;;;;;;6.56;89.64;98561.47;5011048;28;20057;-81
2023/12/28 11:03:02;;;;;;;6.30;3.80;;;;;;;6.58;89.95;98557.56;5002253;28;20053;-81
2023/12/28 11:05:29;;;;;;;9.55;3.75;;;;;;;6.63;89.37;98556.88;5006102;28;20022;-81
2023/12/28 11:07:58;;;;;;;8.73;3.95;;;;;;;6.70;89.57;98552.25;5008482;28;20083;-81
2023/12/28 11:10:24;;;;;;;4.38;2.88;;;;;;;6.68;89.25;98547.16;5008056;28;20116;-81
2023/12/28 11:12:53;;;;;;;9.35;3.88;;;;;;;6.77;89.08;98534.38;5006852;28;20407;-80
2023/12/28 11:15:19;;;;;;;6.55;3.72;;;;;;;6.74;89.44;98537.50;5004616;28;20046;-81
2023/12/28 11:17:45;;;;;;;10.18;4.15;;;;;;;6.77;88.96;98543.13;5008086;28;20038;-81
2023/12/28 11:20:12;;;;;;;10.77;3.70;;;;;;;6.82;89.58;98542.44;5011285;28;20033;-81
2023/12/28 11:22:39;;;;;;;9.73;3.75;;;;;;;6.80;88.57;98523.31;5010125;28;20030;-81
2023/12/28 11:25:08;;;;;;;5.45;3.30;;;;;;;6.82;89.13;98531.84;5005317;28;20029;-80
2023/12/28 11:27:36;;;;;;;8.23;3.38;;;;;;;6.93;88.57;98536.31;5012678;28;20472;-80
2023/12/28 11:30:04;;;;;;;8.00;3.97;;;;;;;6.98;88.89;98551.53;5010717;28;20489;-81
2023/12/28 11:32:38;;;;;;;7.72;3.72;;;;;;;7.04;87.96;98524.06;5007671;28;20033;-81
2023/12/28 11:35:09;;;;;;;15.60;5.07;;;;;;;7.09;87.25;98532.97;5009259;28;20033;-81
2023/12/28 11:37:36;;;;;;;4.18;3.10;;;;;;;7.10;87.42;98521.28;5010082;28;20084;-81